Sumar, Netherlands
Current Conditions -  °F | °C
As of 1:31 PM on Monday 24 Nov 2014 (Local Time) from EHLW Reporting Station
Scattered Clouds Scattered Clouds  
Wind Chill: 50°   Ceiling: Unl
Heat Index: 50°   Visibility: 6mi
Dew Point: 41°   Wind: 12mph
Humidity: 71%   Direction: 280°W
Pressure: 30.21"   Gusts: NA
Location:  53.18°N, 6°E
Report Text: EHLW 241231Z AUTO 28010KT 9999 SCT041 10/05 Q1023 BLU 28010KT 9999 SCT040
Loading
Personal Weather Stations






























Interactive Weather Map New forecast layout! Learn more

10-Day Weather Forecast

Advertisements
Track Severe Weather on mobile